Thursday, July 24, 2014
02:25 UTC
  |  Log In   |  Register Free
Airport Search:

Clayton Municipal Airport
(11A)

Clayton Municipal Airport Diagram
No Airport Diagram Available

FAA data valid effective May 29, 2014 until July 24, 2014 (unless otherwise noted).

 
 
 
 
 
 
 
 
 
 
 
 
 
 

Current Aviation Weather for Clayton Municipal Airport (11A)

The most recent METAR observation for KEUF was updated at: 0058 UTC
METAR Summary (Translated METAR)
KEUF
240058Z AUTO 00000KT 10SM CLR 28/23 A2998 RMK AO2 SLP147 T02780233 $
KLSF
(24.2 nm NE from KEUF)
240058Z AUTO 14002KT 10SM CLR 25/24 A2998 RMK AO2 SLP153 T02540235
TAF Summary (Translated TAF)
KLSF
(24.2 nm NE from KEUF)
2401/2507 30006KT 9999 SCT030 QNH2995INS BECMG 2405/2406 VRB06KT 3200 BR SCT010 BKN020 QNH3000INS BECMG 2413/2414 27009KT 9999 NSW BKN030 QNH2996INS BECMG 2417/2418 25010KT 9000 -SHRA VCTS BKN025CB QNH2993INS TEMPO 2418/2423 22010G20KT 4800 -TSRA BKN020CB BECMG 2505/2506 VRB06KT 3200 BR BKN015 OVC140 QNH2998INS TX32/2420Z TN20/2408Z
KCSG
(35.3 nm NE from KEUF)
231941Z 2320/2418 26006KT P6SM VCSH BKN045 FM240000 28004KT P6SM SCT045 FM241500 25008G15KT P6SM BKN035 FM241700 25008G15KT P6SM VCSH BKN035
  Airport Weather Conditions for 11A

Current weather conditions are
not available for 11A


The nearest NOAA weather station
is at EUF, (18.6 nm NE from 11A)
  
 Current Weather at EUF
82° F
Fair
North winds at 0.0 mph
EUF NOAA Radar

Pressure: 29.98 in
Humidity: 77%
Wind: Calm
Dew Point: 73.9°F
Visibility: 10.00 mi


Airport Weather Forecast for 11A

Translated METAR and TAF for KEUF
Translated METAR for KEUF (0218 UTC 24 July 2014)
found at http://aviationweather.gov/adds/metars/
 
METAR text: KEUF 240158Z AUTO 00000KT 10SM CLR 25/23 A2999 RMK AO2 SLP151 T02500233 $
Conditions at: KEUF (EUFAULA , AL, US) observed 0158 UTC 24 July 2014
Temperature: 25.0°C (77°F)
Dewpoint: 23.3°C (74°F) [RH = 90%]
Pressure (altimeter): 29.99 inches Hg (1015.7 mb)
[Sea-level pressure: 1015.1 mb]
Winds: calm
Visibility: 10 or more miles (16+ km)
Ceiling: at least 12,000 feet AGL
Clouds: sky clear below 12,000 feet AGL
Weather:
SOME DATA ABOVE MAY BE INACCURATE!!!
"$" is an indication the sensor requires maintenance
Translated TAF for KEUF

There is no translated TAF available for this airport

Find All Airport Services Find A Hotel Find A Rental Car Find A Golf Course Find A Restaurant $100 Hamburger



FBO's on the Field
FBO Company Facility Photos Services Transportation Aviation Fuel Prices: Prices include tax
Catering Weather Repair Courtesy Rental Type 100LL JetA JetA+ MOGAS 8087
 
Add another FBO Facility Photos Catering Weather Repair Courtesy Rental Type 100LL JetA JetA+ MOGAS 8087
Services Transportation Aviation Fuel Prices: Prices include tax
There are no FBO's currently reporting fuel at 11A. List your FBO now


GlobalAir.com Airport Resource Center model-print
model-print
model-print
model-print